createdAt,value
2018-12-01T00:00:01.039Z,0
2018-12-01T00:03:28.921Z,0
2018-12-01T00:06:56.844Z,0
2018-12-01T00:10:24.723Z,0
2018-12-01T00:13:52.601Z,0
2018-12-01T00:17:21.465Z,0
2018-12-01T00:20:49.346Z,0
2018-12-01T00:24:17.233Z,0
2018-12-01T00:27:45.108Z,0
2018-12-01T00:31:13.080Z,0
2018-12-01T00:34:40.969Z,0
2018-12-01T00:38:08.847Z,0
2018-12-01T00:41:36.712Z,0
2018-12-01T00:45:04.593Z,0
2018-12-01T00:48:32.467Z,0
2018-12-01T00:52:00.352Z,0
2018-12-01T00:55:28.230Z,0
2018-12-01T00:58:56.114Z,0
2018-12-01T01:02:23.969Z,0
2018-12-01T01:05:51.847Z,0
2018-12-01T01:09:19.726Z,0
2018-12-01T01:12:47.706Z,0
2018-12-01T01:16:15.570Z,0
2018-12-01T01:19:43.448Z,0
2018-12-01T01:23:12.145Z,0
2018-12-01T01:26:40.070Z,0
2018-12-01T01:30:07.951Z,0
2018-12-01T01:33:35.831Z,0
2018-12-01T01:37:03.689Z,0
2018-12-01T01:40:31.609Z,0
2018-12-01T01:43:59.485Z,0
2018-12-01T01:47:28.350Z,0
2018-12-01T01:50:56.228Z,0
2018-12-01T01:54:24.111Z,0
2018-12-01T01:57:52.034Z,0
2018-12-01T02:01:19.895Z,0
2018-12-01T02:04:47.770Z,0
2018-12-01T02:08:15.651Z,0
2018-12-01T02:11:43.517Z,0
2018-12-01T02:15:12.178Z,0
2018-12-01T02:18:40.053Z,0
2018-12-01T02:22:07.913Z,0
2018-12-01T02:25:35.793Z,0
2018-12-01T02:29:03.684Z,0
2018-12-01T02:32:31.551Z,0
2018-12-01T02:35:59.629Z,0
2018-12-01T02:39:27.511Z,0
2018-12-01T02:42:55.392Z,0
2018-12-01T02:46:23.250Z,0
2018-12-01T02:49:51.125Z,0
2018-12-01T02:53:20.330Z,0
2018-12-01T02:56:48.190Z,0
2018-12-01T03:00:17.065Z,0
2018-12-01T03:03:44.941Z,0
2018-12-01T03:07:12.810Z,0
2018-12-01T03:10:40.683Z,0
2018-12-01T03:14:08.685Z,0
2018-12-01T03:17:36.556Z,0
2018-12-01T03:21:04.439Z,0
2018-12-01T03:24:32.317Z,0
2018-12-01T03:28:00.183Z,0
2018-12-01T03:31:28.059Z,0
2018-12-01T03:34:55.935Z,0
2018-12-01T03:38:23.813Z,0
2018-12-01T03:41:51.668Z,0
2018-12-01T03:45:19.553Z,0
2018-12-01T03:48:48.481Z,0
2018-12-01T03:52:16.401Z,0
2018-12-01T03:55:44.297Z,0
2018-12-01T03:59:12.177Z,0
2018-12-01T04:02:40.073Z,0
2018-12-01T04:06:08.007Z,0
2018-12-01T04:09:35.890Z,0
2018-12-01T04:13:03.849Z,0
2018-12-01T04:16:31.731Z,0
2018-12-01T04:19:59.633Z,0
2018-12-01T04:23:27.530Z,0
2018-12-01T04:26:55.395Z,0
2018-12-01T04:30:24.284Z,0
2018-12-01T04:33:52.190Z,0
2018-12-01T04:37:21.207Z,0
2018-12-01T04:40:49.145Z,0
2018-12-01T04:44:17.024Z,0
2018-12-01T04:47:44.937Z,0
2018-12-01T04:51:13.283Z,0
2018-12-01T04:54:41.185Z,0
2018-12-01T04:58:09.112Z,0
2018-12-01T05:01:37.140Z,0
2018-12-01T05:05:05.031Z,0
2018-12-01T05:08:32.913Z,0
2018-12-01T05:12:00.782Z,0
2018-12-01T05:15:28.666Z,0
2018-12-01T05:18:56.552Z,0
2018-12-01T05:22:24.422Z,0
2018-12-01T05:25:52.310Z,0
2018-12-01T05:29:20.192Z,0
2018-12-01T05:32:48.077Z,0
2018-12-01T05:36:15.952Z,0
2018-12-01T05:39:43.834Z,0
2018-12-01T05:43:11.717Z,0
2018-12-01T05:46:39.578Z,0
2018-12-01T05:50:07.457Z,0
2018-12-01T05:53:35.344Z,0
2018-12-01T05:57:03.203Z,0
2018-12-01T06:00:31.087Z,0
2018-12-01T06:03:58.964Z,0
2018-12-01T06:07:26.834Z,0
2018-12-01T06:10:54.716Z,0
2018-12-01T06:14:22.598Z,0
2018-12-01T06:17:50.452Z,0
2018-12-01T06:21:18.342Z,0
2018-12-01T06:24:46.225Z,0
2018-12-01T06:28:14.090Z,0
2018-12-01T06:31:41.966Z,0
2018-12-01T06:35:09.843Z,0
2018-12-01T06:38:37.713Z,0
2018-12-01T06:42:05.584Z,0
2018-12-01T06:45:33.459Z,0
2018-12-01T06:49:01.326Z,0
2018-12-01T06:52:29.196Z,0
2018-12-01T06:55:57.073Z,0
2018-12-01T06:59:24.947Z,0
2018-12-01T07:02:52.832Z,0
2018-12-01T07:06:20.778Z,0
2018-12-01T07:09:48.640Z,5.625
2018-12-01T07:13:16.522Z,5.625
2018-12-01T07:16:44.398Z,5.625
2018-12-01T07:20:12.260Z,11.25
2018-12-01T07:23:40.139Z,11.25
2018-12-01T07:27:08.019Z,16.875
2018-12-01T07:30:35.890Z,11.25
2018-12-01T07:34:03.774Z,16.875
2018-12-01T07:37:32.654Z,16.875
2018-12-01T07:41:02.573Z,22.5
2018-12-01T07:44:30.455Z,22.5
2018-12-01T07:47:59.333Z,22.5
2018-12-01T07:51:27.194Z,22.5
2018-12-01T07:54:55.067Z,28.125
2018-12-01T07:58:22.949Z,28.125
2018-12-01T08:01:50.815Z,39.375
2018-12-01T08:05:18.722Z,33.75
2018-12-01T08:08:46.610Z,39.375
2018-12-01T08:12:14.474Z,50.625
2018-12-01T08:15:42.367Z,45
2018-12-01T08:19:10.250Z,61.875
2018-12-01T08:22:38.116Z,67.5
2018-12-01T08:26:05.998Z,90
2018-12-01T08:29:33.884Z,106.875
2018-12-01T08:33:01.800Z,123.75
2018-12-01T08:36:29.671Z,95.625
2018-12-01T08:39:57.587Z,73.125
2018-12-01T08:43:25.459Z,67.5
2018-12-01T08:46:53.372Z,61.875
2018-12-01T08:50:21.257Z,84.375
2018-12-01T08:53:49.147Z,61.875
2018-12-01T08:57:17.024Z,61.875
2018-12-01T09:00:44.916Z,73.125
2018-12-01T09:04:13.841Z,67.5
2018-12-01T09:07:41.690Z,84.375
2018-12-01T09:11:09.580Z,95.625
2018-12-01T09:14:37.456Z,101.25
2018-12-01T09:18:05.339Z,112.5
2018-12-01T09:21:33.285Z,106.875
2018-12-01T09:25:01.170Z,112.5
2018-12-01T09:28:29.059Z,118.125
2018-12-01T09:31:56.939Z,118.125
2018-12-01T09:35:24.860Z,101.25
2018-12-01T09:38:52.724Z,73.125
2018-12-01T09:42:24.758Z,90
2018-12-01T09:45:51.468Z,101.25
2018-12-01T09:49:19.334Z,118.125
2018-12-01T09:52:47.221Z,90
2018-12-01T09:56:15.102Z,135
2018-12-01T09:59:42.976Z,163.125
2018-12-01T10:03:10.857Z,140.625
2018-12-01T10:06:39.730Z,129.375
2018-12-01T10:10:08.590Z,129.375
2018-12-01T10:13:36.505Z,129.375
2018-12-01T10:17:04.382Z,95.625
2018-12-01T10:20:32.256Z,95.625
2018-12-01T10:24:00.123Z,84.375
2018-12-01T10:27:28.005Z,78.75
2018-12-01T10:30:55.898Z,84.375
2018-12-01T10:34:23.764Z,95.625
2018-12-01T10:37:51.645Z,84.375
2018-12-01T10:41:19.566Z,78.75
2018-12-01T10:44:47.696Z,101.25
2018-12-01T10:48:15.633Z,95.625
2018-12-01T10:51:43.497Z,135
2018-12-01T10:55:11.381Z,123.75
2018-12-01T10:58:39.258Z,101.25
2018-12-01T11:02:07.128Z,95.625
2018-12-01T11:05:35.017Z,95.625
2018-12-01T11:09:02.890Z,67.5
2018-12-01T11:12:30.753Z,78.75
2018-12-01T11:15:59.628Z,61.875
2018-12-01T11:19:27.505Z,67.5
2018-12-01T11:22:57.892Z,84.375
2018-12-01T11:26:25.250Z,73.125
2018-12-01T11:29:53.131Z,67.5
2018-12-01T11:33:21.126Z,56.25
2018-12-01T11:36:49.993Z,45
2018-12-01T11:40:17.882Z,39.375
2018-12-01T11:43:45.757Z,45
2018-12-01T11:47:13.633Z,56.25
2018-12-01T11:50:42.512Z,61.875
2018-12-01T11:54:10.395Z,73.125
2018-12-01T11:57:38.253Z,73.125
2018-12-01T12:01:06.141Z,67.5
2018-12-01T12:04:34.015Z,73.125
2018-12-01T12:08:01.885Z,56.25
2018-12-01T12:11:29.758Z,56.25
2018-12-01T12:14:57.634Z,61.875
2018-12-01T12:18:26.509Z,73.125
2018-12-01T12:21:55.400Z,73.125
2018-12-01T12:25:23.290Z,90
2018-12-01T12:28:51.178Z,73.125
2018-12-01T12:32:19.375Z,101.25
2018-12-01T12:35:47.509Z,90
2018-12-01T12:39:15.237Z,67.5
2018-12-01T12:42:43.127Z,56.25
2018-12-01T12:46:11.013Z,56.25
2018-12-01T12:49:39.550Z,90
2018-12-01T12:53:08.377Z,95.625
2018-12-01T13:30:18.867Z,0
2018-12-01T13:34:47.558Z,39.375
2018-12-01T13:38:15.502Z,39.375
2018-12-01T13:41:43.524Z,39.375
2018-12-01T13:45:11.395Z,39.375
2018-12-01T13:48:39.353Z,39.375
2018-12-01T13:52:07.216Z,39.375
2018-12-01T13:55:35.168Z,39.375
2018-12-01T13:59:03.044Z,33.75
2018-12-01T14:02:30.904Z,22.5
2018-12-01T14:05:58.779Z,16.875
2018-12-01T14:09:26.651Z,16.875
2018-12-01T14:12:54.526Z,11.25
2018-12-01T14:16:22.396Z,11.25
2018-12-01T14:19:50.272Z,11.25
2018-12-01T14:23:19.142Z,16.875
2018-12-01T14:26:47.006Z,16.875
2018-12-01T14:30:14.883Z,22.5
2018-12-01T14:33:42.757Z,28.125
2018-12-01T14:37:10.619Z,16.875
2018-12-01T14:40:38.495Z,11.25
2018-12-01T14:44:06.376Z,11.25
2018-12-01T14:47:34.233Z,5.625
2018-12-01T14:51:02.109Z,5.625
2018-12-01T14:54:29.983Z,5.625
2018-12-01T14:57:57.864Z,0
2018-12-01T15:01:25.739Z,0
2018-12-01T15:04:54.618Z,0
2018-12-01T15:08:22.493Z,0
2018-12-01T15:11:50.354Z,0
2018-12-01T15:15:19.232Z,0
2018-12-01T15:18:49.088Z,0
2018-12-01T15:22:16.948Z,0
2018-12-01T15:25:44.821Z,0
2018-12-01T15:29:34.926Z,0
2018-12-01T15:33:02.806Z,0
2018-12-01T15:36:30.666Z,0
2018-12-01T15:39:59.539Z,0
2018-12-01T15:43:27.413Z,0
2018-12-01T15:46:55.268Z,0
2018-12-01T15:50:23.147Z,0
2018-12-01T15:53:51.022Z,0
2018-12-01T15:57:19.866Z,0
2018-12-01T16:00:47.743Z,0
2018-12-01T16:04:15.622Z,0
2018-12-01T16:07:43.490Z,0
2018-12-01T16:11:12.366Z,0
2018-12-01T16:14:41.247Z,0
2018-12-01T16:18:09.105Z,0
2018-12-01T16:21:36.977Z,0
2018-12-01T16:25:04.851Z,0
2018-12-01T16:28:32.728Z,0
2018-12-01T16:32:00.596Z,0
2018-12-01T16:35:28.481Z,0
2018-12-01T16:38:56.354Z,0
2018-12-01T16:42:24.210Z,0
2018-12-01T16:45:52.083Z,0
2018-12-01T16:49:19.962Z,0
2018-12-01T16:52:47.826Z,0
2018-12-01T16:56:15.702Z,0
2018-12-01T16:59:43.582Z,0
2018-12-01T17:03:11.461Z,0
2018-12-01T17:06:39.327Z,0
2018-12-01T17:10:07.202Z,0
2018-12-01T17:13:35.083Z,0
2018-12-01T17:17:02.945Z,0
2018-12-01T17:20:31.828Z,0
2018-12-01T17:23:59.704Z,0
2018-12-01T17:27:27.566Z,0
2018-12-01T17:30:56.440Z,0
2018-12-01T17:34:24.318Z,0
2018-12-01T17:37:52.179Z,0
2018-12-01T17:41:21.048Z,0
2018-12-01T17:44:49.992Z,0
2018-12-01T17:48:18.970Z,0
2018-12-01T17:51:46.829Z,0
2018-12-01T17:55:14.718Z,0
2018-12-01T17:58:42.578Z,0
2018-12-01T18:02:10.984Z,0
2018-12-01T18:05:47.039Z,0
2018-12-01T18:09:23.050Z,0
2018-12-01T18:12:50.981Z,0
2018-12-01T18:16:18.857Z,0
2018-12-01T18:19:47.741Z,0
2018-12-01T18:23:15.627Z,0
2018-12-01T18:26:43.496Z,0
2018-12-01T18:30:12.503Z,0
2018-12-01T18:33:40.380Z,0
2018-12-01T18:37:08.243Z,0
2018-12-01T18:40:36.123Z,0
2018-12-01T18:44:04.002Z,0
2018-12-01T18:47:32.154Z,0
2018-12-01T18:51:00.009Z,0
2018-12-01T18:54:27.892Z,0
2018-12-01T18:57:55.782Z,0
2018-12-01T19:01:23.657Z,0
2018-12-01T19:04:51.524Z,0
2018-12-01T19:08:19.407Z,0
2018-12-01T19:11:47.273Z,0
2018-12-01T19:15:15.154Z,0
2018-12-01T19:18:43.049Z,0
2018-12-01T19:22:10.911Z,0
2018-12-01T19:25:38.920Z,0
2018-12-01T19:29:07.828Z,0
2018-12-01T19:32:35.694Z,0
2018-12-01T19:36:03.567Z,0
2018-12-01T19:39:31.457Z,0
2018-12-01T19:43:00.327Z,0
2018-12-01T19:46:28.197Z,0
2018-12-01T19:49:56.086Z,0
2018-12-01T19:53:23.964Z,0
2018-12-01T19:56:51.815Z,0
2018-12-01T20:00:19.694Z,0
2018-12-01T20:03:47.582Z,0
2018-12-01T20:07:15.443Z,0
2018-12-01T20:10:44.316Z,0
2018-12-01T20:14:12.200Z,0
2018-12-01T20:17:40.077Z,0
2018-12-01T20:21:07.950Z,0
2018-12-01T20:24:35.830Z,0
2018-12-01T20:28:03.692Z,0
2018-12-01T20:31:31.571Z,0
2018-12-01T20:34:59.453Z,0
2018-12-01T20:38:27.320Z,0
2018-12-01T20:41:55.198Z,0
2018-12-01T20:45:23.079Z,0
2018-12-01T20:48:50.966Z,0
2018-12-01T20:52:18.829Z,0
2018-12-01T20:55:46.703Z,0
2018-12-01T20:59:14.582Z,0
2018-12-01T21:02:43.440Z,0
2018-12-01T21:06:11.328Z,0
2018-12-01T21:09:39.295Z,0
2018-12-01T21:13:07.178Z,0
2018-12-01T21:16:35.054Z,0
2018-12-01T21:20:03.930Z,0
2018-12-01T21:23:31.796Z,0
2018-12-01T21:26:59.681Z,0
2018-12-01T21:30:27.626Z,0
2018-12-01T21:33:55.532Z,0
2018-12-01T21:37:23.424Z,0
2018-12-01T21:40:51.337Z,0
2018-12-01T21:44:20.906Z,0
2018-12-01T21:47:49.079Z,0
2018-12-01T21:51:16.987Z,0
2018-12-01T21:54:44.850Z,0
2018-12-01T21:58:12.726Z,0
2018-12-01T22:01:40.649Z,0
2018-12-01T22:05:08.563Z,0
2018-12-01T22:08:36.429Z,0
2018-12-01T22:12:04.318Z,0
2018-12-01T22:15:32.455Z,0
2018-12-01T22:19:00.312Z,0
2018-12-01T22:22:28.203Z,0
2018-12-01T22:25:56.081Z,0
2018-12-01T22:29:23.954Z,0
2018-12-01T22:32:52.364Z,0
2018-12-01T22:36:20.261Z,0
2018-12-01T22:39:49.000Z,0
2018-12-01T22:43:17.790Z,0
2018-12-01T22:46:45.670Z,0
2018-12-01T22:50:13.533Z,0
2018-12-01T22:53:41.409Z,0
2018-12-01T22:57:09.292Z,0
2018-12-01T23:00:37.174Z,0
2018-12-01T23:04:05.037Z,0
2018-12-01T23:07:32.918Z,0
2018-12-01T23:11:01.786Z,0
2018-12-01T23:14:30.632Z,0
2018-12-01T23:17:59.499Z,0
2018-12-01T23:21:27.435Z,0
2018-12-01T23:24:55.322Z,0
2018-12-01T23:28:23.209Z,0
2018-12-01T23:31:52.084Z,0
2018-12-01T23:35:19.950Z,0
2018-12-01T23:38:47.833Z,0
2018-12-01T23:42:15.713Z,0
2018-12-01T23:45:44.563Z,0
2018-12-01T23:49:12.441Z,0
2018-12-01T23:52:40.319Z,0
2018-12-01T23:56:08.187Z,0
2018-12-01T23:59:37.059Z,0
